Time;durP1;ratioP1;P1;durP2;ratioP2;P2;SDS_P1;SDS_P2;PMS_P1;PMS_P2;Temp;Humidity;BMP_temperature;BMP_pressure;BME280_temperature;BME280_humidity;BME280_pressure;Samples;Min_cycle;Max_cycle;Signal;HPM_P1;HPM_P2
2024/03/02 00:00:20;;;;;;;5.22;3.55;;;5.00;99.90;;;;;;5073895;28;20035;-64
2024/03/02 00:03:09;;;;;;;6.45;3.65;;;4.90;99.90;;;;;;5076535;28;20051;-64
2024/03/02 00:05:55;;;;;;;8.93;4.32;;;5.00;99.90;;;;;;5075858;28;20071;-64
2024/03/02 00:08:41;;;;;;;6.03;4.03;;;5.00;99.90;;;;;;5057639;28;20031;-64
2024/03/02 00:11:27;;;;;;;5.87;3.80;;;5.00;99.90;;;;;;5063942;28;20028;-64
2024/03/02 00:14:13;;;;;;;6.10;3.83;;;5.00;99.90;;;;;;5077763;28;20036;-64
2024/03/02 00:16:59;;;;;;;8.70;4.95;;;5.00;99.90;;;;;;5071391;28;20040;-63
2024/03/02 00:19:45;;;;;;;9.27;4.63;;;5.00;99.90;;;;;;5061190;28;20033;-64
2024/03/02 00:22:31;;;;;;;7.13;4.10;;;5.00;99.90;;;;;;5065141;28;20040;-64
2024/03/02 00:25:17;;;;;;;9.13;5.10;;;5.10;99.90;;;;;;5058751;28;20501;-64
2024/03/02 00:28:05;;;;;;;7.57;4.28;;;5.00;99.90;;;;;;5061157;28;20374;-64
2024/03/02 00:30:54;;;;;;;7.40;4.65;;;5.00;99.90;;;;;;5058860;28;20032;-64
2024/03/02 00:33:47;;;;;;;7.60;5.00;;;5.00;99.90;;;;;;5061178;28;20033;-64
2024/03/02 00:36:33;;;;;;;8.63;5.90;;;4.90;99.90;;;;;;5055225;28;20040;-64
2024/03/02 00:39:19;;;;;;;9.68;6.00;;;4.90;99.90;;;;;;5051522;28;20113;-64
2024/03/02 00:42:05;;;;;;;8.10;5.43;;;4.90;99.90;;;;;;5064687;28;20116;-64
2024/03/02 00:44:51;;;;;;;8.90;6.23;;;4.90;99.90;;;;;;5058712;28;20041;-64
2024/03/02 00:47:40;;;;;;;11.93;7.00;;;4.90;99.90;;;;;;5061579;28;20064;-63
2024/03/02 00:50:26;;;;;;;10.25;6.38;;;4.90;99.90;;;;;;5056136;28;20135;-63
2024/03/02 00:53:12;;;;;;;9.98;6.55;;;4.90;99.90;;;;;;5063523;28;20478;-63
2024/03/02 00:55:59;;;;;;;10.77;7.22;;;4.90;99.90;;;;;;5057755;28;20044;-63
2024/03/02 00:58:45;;;;;;;;;;;4.80;99.90;;;;;;5062697;28;20048;-64
2024/03/02 01:01:31;;;;;;;11.10;6.82;;;4.90;99.90;;;;;;5057655;28;19916;-63
2024/03/02 01:04:17;;;;;;;13.55;7.50;;;4.80;99.90;;;;;;5063654;28;20111;-64
2024/03/02 01:07:03;;;;;;;12.43;7.25;;;4.80;99.90;;;;;;5060576;28;20052;-64
2024/03/02 01:09:49;;;;;;;9.87;6.80;;;4.90;99.90;;;;;;5054165;28;20036;-63
2024/03/02 01:12:35;;;;;;;10.27;6.75;;;4.90;99.90;;;;;;5063600;28;20075;-63
2024/03/02 01:15:20;;;;;;;9.30;6.37;;;4.90;99.90;;;;;;5057439;28;20066;-63
2024/03/02 01:18:06;;;;;;;14.00;7.43;;;4.90;99.90;;;;;;5063683;28;20055;-63
2024/03/02 01:20:52;;;;;;;11.07;7.43;;;4.90;99.90;;;;;;5050364;28;20033;-63
2024/03/02 01:23:38;;;;;;;12.40;7.38;;;5.00;99.90;;;;;;5061724;28;20051;-64
2024/03/02 01:26:24;;;;;;;11.55;7.10;;;5.00;99.90;;;;;;5056368;28;20044;-63
2024/03/02 01:29:10;;;;;;;12.93;7.18;;;4.90;99.90;;;;;;5067034;23;20040;-65
2024/03/02 01:31:56;;;;;;;11.65;7.22;;;4.90;99.90;;;;;;5009072;28;20041;-65
2024/03/02 01:34:42;;;;;;;11.45;7.43;;;4.90;99.90;;;;;;5022716;28;20033;-65
2024/03/02 01:37:28;;;;;;;11.82;6.95;;;5.00;99.90;;;;;;5017150;28;20435;-65
2024/03/02 01:40:14;;;;;;;11.25;7.30;;;4.90;99.90;;;;;;5023644;28;20084;-65
2024/03/02 01:43:00;;;;;;;10.35;6.82;;;5.00;99.90;;;;;;5027408;28;20114;-65
2024/03/02 01:45:46;;;;;;;10.60;6.80;;;4.90;99.90;;;;;;5018655;28;20419;-65
2024/03/02 01:48:31;;;;;;;11.00;6.53;;;5.00;99.90;;;;;;5026647;28;20788;-65
2024/03/02 01:51:17;;;;;;;11.02;7.82;;;5.00;99.90;;;;;;5028954;28;20032;-65
2024/03/02 01:54:03;;;;;;;12.30;8.20;;;5.00;99.90;;;;;;5023110;28;20044;-65
2024/03/02 01:56:49;;;;;;;12.83;8.27;;;5.00;99.90;;;;;;5020590;28;20372;-65
2024/03/02 01:59:35;;;;;;;15.60;8.27;;;5.00;99.90;;;;;;5023768;28;20030;-65
2024/03/02 02:02:21;;;;;;;10.73;7.00;;;5.00;99.90;;;;;;5023903;28;20121;-65
2024/03/02 02:05:07;;;;;;;11.33;7.73;;;4.90;99.90;;;;;;5022969;28;20092;-65
2024/03/02 02:07:53;;;;;;;11.68;7.13;;;4.90;99.90;;;;;;5020868;28;20672;-65
2024/03/02 02:10:39;;;;;;;13.57;8.27;;;4.90;99.90;;;;;;5018689;28;20044;-65
2024/03/02 02:13:25;;;;;;;11.45;6.72;;;4.90;99.90;;;;;;5025722;28;20029;-65
2024/03/02 02:16:11;;;;;;;13.38;8.23;;;4.90;99.90;;;;;;5024591;28;20029;-65
2024/03/02 02:18:57;;;;;;;12.43;7.83;;;4.90;99.90;;;;;;5020056;28;20044;-65
2024/03/02 02:21:43;;;;;;;14.52;8.63;;;5.00;99.90;;;;;;5020959;28;20378;-65
2024/03/02 02:24:29;;;;;;;11.43;7.40;;;5.00;99.90;;;;;;5023165;28;20041;-65
2024/03/02 02:27:15;;;;;;;13.80;9.07;;;5.00;99.90;;;;;;5024932;28;20060;-65
2024/03/02 02:30:02;;;;;;;16.48;9.55;;;5.00;99.90;;;;;;5018386;28;20104;-65
2024/03/02 02:32:48;;;;;;;13.27;7.88;;;5.10;99.90;;;;;;5019421;28;20652;-65
2024/03/02 02:35:35;;;;;;;15.17;8.30;;;5.00;99.90;;;;;;5021986;28;20044;-65
2024/03/02 02:38:20;;;;;;;16.52;8.82;;;5.00;99.90;;;;;;5024458;28;20044;-65
2024/03/02 02:41:07;;;;;;;14.30;8.98;;;5.00;99.90;;;;;;5020304;28;20124;-65
2024/03/02 02:43:52;;;;;;;13.95;8.05;;;4.90;99.90;;;;;;5023934;28;20691;-65
2024/03/02 02:46:39;;;;;;;14.15;8.18;;;4.90;99.90;;;;;;5025670;28;20120;-65
2024/03/02 02:49:25;;;;;;;12.98;8.07;;;4.90;99.90;;;;;;5021097;28;20086;-65
2024/03/02 02:52:11;;;;;;;13.05;7.80;;;4.90;99.90;;;;;;5025809;28;20076;-65
2024/03/02 02:54:56;;;;;;;12.48;7.70;;;4.90;99.90;;;;;;5022891;28;20640;-65
2024/03/02 02:57:43;;;;;;;11.20;7.35;;;4.90;99.90;;;;;;5023342;28;20033;-65
2024/03/02 03:00:29;;;;;;;;;;;4.90;99.90;;;;;;5022926;28;20045;-65
2024/03/02 03:03:15;;;;;;;14.00;7.88;;;4.80;99.90;;;;;;5023952;28;20286;-65
2024/03/02 03:06:02;;;;;;;13.13;6.80;;;4.80;99.90;;;;;;5023074;28;20087;-65
2024/03/02 03:08:48;;;;;;;11.95;7.05;;;4.70;99.90;;;;;;5019614;28;20355;-65
2024/03/02 03:11:34;;;;;;;11.48;6.30;;;4.70;99.90;;;;;;5024250;28;20034;-65
2024/03/02 03:14:19;;;;;;;9.10;6.03;;;4.70;99.90;;;;;;5019836;28;20033;-65
2024/03/02 03:17:06;;;;;;;13.90;6.65;;;4.60;99.90;;;;;;5022007;28;20034;-65
2024/03/02 03:19:53;;;;;;;11.23;6.13;;;4.60;99.90;;;;;;5022271;28;20128;-65
2024/03/02 03:22:39;;;;;;;8.93;5.63;;;4.60;99.90;;;;;;5023268;28;20042;-65
2024/03/02 03:25:25;;;;;;;13.48;6.93;;;4.60;99.90;;;;;;5025160;28;20037;-65
2024/03/02 03:28:10;;;;;;;10.10;6.13;;;4.50;99.90;;;;;;5022348;28;20053;-65
2024/03/02 03:30:56;;;;;;;9.93;6.05;;;4.50;99.90;;;;;;5025339;28;21103;-65
2024/03/02 03:33:42;;;;;;;12.13;6.55;;;4.50;99.90;;;;;;5023440;28;20029;-65
2024/03/02 03:36:28;;;;;;;11.77;6.38;;;4.50;99.90;;;;;;5006909;28;20430;-65
2024/03/02 03:39:14;;;;;;;9.70;5.82;;;4.60;99.90;;;;;;5021110;28;20105;-65
2024/03/02 03:42:00;;;;;;;8.93;5.43;;;4.50;99.90;;;;;;5018372;28;20057;-65
2024/03/02 03:44:45;;;;;;;9.95;5.72;;;4.50;99.90;;;;;;5017871;28;20224;-65
2024/03/02 03:47:32;;;;;;;11.38;5.65;;;4.50;99.90;;;;;;5021129;28;20080;-65
2024/03/02 03:50:18;;;;;;;8.20;5.30;;;4.60;99.90;;;;;;5005105;28;20128;-65
2024/03/02 03:53:04;;;;;;;9.37;4.90;;;4.60;99.90;;;;;;5027999;28;20034;-65
2024/03/02 03:55:50;;;;;;;8.85;4.72;;;4.60;99.90;;;;;;5026520;28;20677;-65
2024/03/02 03:58:36;;;;;;;8.00;5.13;;;4.70;99.90;;;;;;5026940;28;20038;-65
2024/03/02 04:01:22;;;;;;;8.52;4.45;;;4.70;99.90;;;;;;5022855;28;20574;-65
2024/03/02 04:04:08;;;;;;;10.82;4.43;;;4.70;99.90;;;;;;5029382;28;20055;-65
2024/03/02 04:06:54;;;;;;;8.57;4.38;;;4.80;99.90;;;;;;5028145;28;20038;-65
2024/03/02 04:09:40;;;;;;;7.10;3.50;;;4.80;99.90;;;;;;5025235;28;20037;-65
2024/03/02 04:12:26;;;;;;;8.85;3.60;;;4.80;99.90;;;;;;5029859;28;20046;-65
2024/03/02 04:15:18;;;;;;;7.05;3.17;;;4.90;99.90;;;;;;5025315;28;20423;-65
2024/03/02 04:18:06;;;;;;;5.82;3.13;;;4.90;99.90;;;;;;5022704;28;20200;-65
2024/03/02 04:20:52;;;;;;;6.75;3.28;;;4.90;99.90;;;;;;5017848;28;20395;-65
2024/03/02 04:23:38;;;;;;;5.75;3.50;;;4.80;99.90;;;;;;5027003;28;20034;-65
2024/03/02 04:26:25;;;;;;;5.50;3.13;;;4.70;99.90;;;;;;5025564;28;20055;-65
2024/03/02 04:29:11;;;;;;;;;;;4.80;99.90;;;;;;5027140;28;20301;-65
2024/03/02 04:31:56;;;;;;;5.40;3.30;;;4.70;99.90;;;;;;5024970;28;19979;-65
2024/03/02 04:34:42;;;;;;;8.25;4.88;;;4.60;99.90;;;;;;5025491;28;20525;-65
2024/03/02 04:37:28;;;;;;;9.43;4.50;;;4.60;99.90;;;;;;5026420;28;20072;-65
2024/03/02 04:40:14;;;;;;;5.97;3.47;;;4.50;99.90;;;;;;5028232;28;20036;-65
2024/03/02 04:43:00;;;;;;;10.90;5.43;;;4.60;99.90;;;;;;5026944;28;20454;-65
2024/03/02 04:45:46;;;;;;;7.32;4.00;;;4.50;99.90;;;;;;5022129;28;20030;-65
2024/03/02 04:48:32;;;;;;;10.50;6.90;;;4.50;99.90;;;;;;5023745;28;20044;-65
2024/03/02 04:51:18;;;;;;;11.50;7.20;;;4.50;99.90;;;;;;5027106;28;20030;-65
2024/03/02 04:54:04;;;;;;;11.73;6.25;;;4.40;99.90;;;;;;5021876;28;20068;-65
2024/03/02 04:56:49;;;;;;;9.77;5.20;;;4.30;99.90;;;;;;5022586;28;20049;-66
2024/03/02 04:59:35;;;;;;;9.98;6.05;;;4.30;99.90;;;;;;5026438;28;20098;-65
2024/03/02 05:02:21;;;;;;;11.43;6.87;;;4.30;99.90;;;;;;5027326;28;20399;-65
2024/03/02 05:05:07;;;;;;;16.33;9.10;;;4.30;99.90;;;;;;5021274;28;20299;-63
2024/03/02 05:07:53;;;;;;;17.47;10.50;;;4.30;99.90;;;;;;5023493;28;20131;-63
2024/03/02 05:10:39;;;;;;;17.70;10.88;;;4.20;99.90;;;;;;5024341;28;20287;-63
2024/03/02 05:13:25;;;;;;;15.60;9.07;;;4.30;99.90;;;;;;5028438;28;20038;-63
2024/03/02 05:16:11;;;;;;;12.25;7.82;;;4.30;99.90;;;;;;5021209;28;20069;-64
2024/03/02 05:18:57;;;;;;;17.10;10.15;;;4.20;99.90;;;;;;5018530;28;20291;-64
2024/03/02 05:21:43;;;;;;;18.47;10.93;;;4.10;99.90;;;;;;5010475;28;20037;-64
2024/03/02 05:24:29;;;;;;;20.20;11.75;;;4.10;99.90;;;;;;5017637;28;20410;-64
2024/03/02 05:27:15;;;;;;;18.60;11.68;;;4.10;99.90;;;;;;5022845;28;20045;-64
2024/03/02 05:30:02;;;;;;;18.85;10.18;;;4.10;99.90;;;;;;5026503;28;20506;-64
2024/03/02 05:32:48;;;;;;;16.35;9.25;;;4.10;99.90;;;;;;5020746;28;20095;-64
2024/03/02 05:35:34;;;;;;;13.50;9.02;;;4.10;99.90;;;;;;5025427;28;20064;-64
2024/03/02 05:38:19;;;;;;;15.50;8.40;;;4.00;99.90;;;;;;5028255;28;20120;-64
2024/03/02 05:41:05;;;;;;;14.23;7.93;;;4.00;99.90;;;;;;5025152;28;20033;-64
2024/03/02 05:43:51;;;;;;;15.88;7.80;;;4.00;99.90;;;;;;5030121;28;20031;-64
2024/03/02 05:46:37;;;;;;;16.75;9.18;;;4.00;99.90;;;;;;5024792;28;20163;-64
2024/03/02 05:49:23;;;;;;;18.67;10.13;;;3.90;99.90;;;;;;5024326;28;20085;-64
2024/03/02 05:52:09;;;;;;;16.90;9.60;;;3.90;99.90;;;;;;5023383;28;20064;-64
2024/03/02 05:54:55;;;;;;;19.38;11.18;;;3.80;99.90;;;;;;5023638;28;20036;-64
2024/03/02 06:00:26;;;;;;;17.77;10.40;;;3.80;99.90;;;;;;5029547;28;20617;-63
2024/03/02 06:03:12;;;;;;;18.02;10.10;;;3.70;99.90;;;;;;5012609;28;20040;-63
2024/03/02 06:05:59;;;;;;;18.85;10.32;;;3.70;99.90;;;;;;5033561;28;20033;-64
2024/03/02 06:08:45;;;;;;;16.10;9.65;;;3.70;99.90;;;;;;5025001;28;20048;-64
2024/03/02 06:11:31;;;;;;;17.38;9.45;;;3.70;99.90;;;;;;5041774;28;20671;-64
2024/03/02 06:14:17;;;;;;;16.60;8.23;;;3.70;99.90;;;;;;5027504;28;20490;-64
2024/03/02 06:17:03;;;;;;;15.48;9.18;;;3.80;99.90;;;;;;5036550;28;20029;-64
2024/03/02 06:19:48;;;;;;;13.37;7.37;;;3.80;99.90;;;;;;5026880;28;20033;-64
2024/03/02 06:22:35;;;;;;;18.58;9.50;;;3.80;99.90;;;;;;5023882;28;20378;-64
2024/03/02 06:25:20;;;;;;;12.10;7.07;;;3.80;99.90;;;;;;5022335;28;20038;-64
2024/03/02 06:28:07;;;;;;;20.15;10.50;;;3.80;99.90;;;;;;5027363;28;20148;-64
2024/03/02 06:30:53;;;;;;;18.42;9.27;;;3.80;99.90;;;;;;5036645;28;20059;-64
2024/03/02 06:33:40;;;;;;;15.35;7.82;;;3.80;99.90;;;;;;5026158;28;20052;-64
2024/03/02 06:36:26;;;;;;;12.07;7.05;;;3.90;99.90;;;;;;5005944;28;20061;-64
2024/03/02 06:39:12;;;;;;;16.40;8.38;;;3.90;99.90;;;;;;5024046;28;20029;-64
2024/03/02 06:41:58;;;;;;;18.67;9.35;;;3.90;99.90;;;;;;5025272;28;20033;-64
2024/03/02 06:44:44;;;;;;;14.90;8.15;;;3.90;99.90;;;;;;5018004;28;20056;-64
2024/03/02 06:47:30;;;;;;;15.85;9.52;;;3.90;99.90;;;;;;5032172;28;20076;-64
2024/03/02 06:50:16;;;;;;;15.10;8.13;;;4.00;99.90;;;;;;5028492;28;20033;-64
2024/03/02 06:53:04;;;;;;;15.60;9.07;;;4.10;99.90;;;;;;5020282;28;20041;-64
2024/03/02 06:55:49;;;;;;;19.15;11.10;;;4.00;99.90;;;;;;5014937;28;20407;-64
2024/03/02 06:58:35;;;;;;;18.60;10.68;;;4.10;99.90;;;;;;5022914;28;20049;-64
2024/03/02 07:01:21;;;;;;;23.25;12.88;;;4.10;99.90;;;;;;5020904;28;20387;-64
2024/03/02 07:04:07;;;;;;;23.00;12.20;;;4.20;99.90;;;;;;5024994;28;20056;-64
2024/03/02 07:06:53;;;;;;;22.17;11.93;;;4.20;99.90;;;;;;5017506;28;20044;-64
2024/03/02 07:09:39;;;;;;;16.15;9.35;;;4.30;99.90;;;;;;5024023;28;20036;-64
2024/03/02 07:12:25;;;;;;;16.77;10.18;;;4.30;99.90;;;;;;5026164;28;20037;-64
2024/03/02 07:15:21;;;;;;;17.13;9.85;;;4.30;99.90;;;;;;5020441;28;20065;-64
2024/03/02 07:18:07;;;;;;;17.73;10.67;;;4.40;99.90;;;;;;5021385;28;20038;-64
2024/03/02 07:20:53;;;;;;;20.20;11.30;;;4.40;99.90;;;;;;5024646;28;20156;-64
2024/03/02 07:23:39;;;;;;;18.15;10.45;;;4.40;99.90;;;;;;5021600;28;20369;-64
2024/03/02 07:26:25;;;;;;;17.92;10.13;;;4.50;99.90;;;;;;5028255;28;20041;-64
2024/03/02 07:29:11;;;;;;;16.60;9.93;;;4.50;99.90;;;;;;5020589;28;20129;-64
2024/03/02 07:31:57;;;;;;;19.37;11.20;;;4.50;99.90;;;;;;5028081;28;20061;-64
2024/03/02 07:34:43;;;;;;;25.75;14.07;;;4.60;99.90;;;;;;5027760;28;20040;-64
2024/03/02 07:37:29;;;;;;;27.98;15.32;;;4.60;99.90;;;;;;5027020;28;20040;-63
2024/03/02 07:40:15;;;;;;;24.88;14.15;;;4.60;99.90;;;;;;5031874;28;20072;-64
2024/03/02 07:43:00;;;;;;;28.87;15.33;;;4.60;99.90;;;;;;5016112;28;20034;-63
2024/03/02 07:45:47;;;;;;;21.37;13.30;;;4.60;99.90;;;;;;5026577;28;20033;-66
2024/03/02 07:48:33;;;;;;;18.98;12.77;;;4.70;99.90;;;;;;5024825;28;20479;-66
2024/03/02 07:51:19;;;;;;;15.57;9.00;;;4.80;99.90;;;;;;5023600;28;20394;-66
2024/03/02 07:54:05;;;;;;;21.52;12.07;;;4.90;99.90;;;;;;5025452;28;20073;-69
2024/03/02 07:56:51;;;;;;;17.53;9.50;;;5.00;99.90;;;;;;5028422;28;20033;-66
2024/03/02 07:59:37;;;;;;;12.55;7.70;;;5.20;99.90;;;;;;5031161;28;20048;-67
2024/03/02 08:02:23;;;;;;;18.63;9.05;;;5.40;99.90;;;;;;5028827;28;20049;-67
2024/03/02 08:05:09;;;;;;;28.25;10.23;;;5.60;99.90;;;;;;5027900;28;20455;-66
2024/03/02 08:07:54;;;;;;;18.83;8.53;;;6.00;99.90;;;;;;5033913;28;20064;-65
2024/03/02 08:10:40;;;;;;;11.85;6.50;;;6.60;99.90;;;;;;5026545;28;20562;-65
2024/03/02 08:13:26;;;;;;;7.95;4.93;;;7.10;99.90;;;;;;5029168;28;20033;-66
2024/03/02 08:16:12;;;;;;;9.13;5.53;;;7.40;99.90;;;;;;5025323;28;20041;-66
2024/03/02 08:18:58;;;;;;;8.32;5.18;;;7.60;99.90;;;;;;5026339;28;20447;-65
2024/03/02 08:21:44;;;;;;;7.88;4.43;;;7.90;99.90;;;;;;5031136;28;20111;-65
2024/03/02 08:24:30;;;;;;;9.88;5.18;;;8.00;99.90;;;;;;5029962;28;20049;-65
2024/03/02 08:27:16;;;;;;;7.45;4.38;;;8.10;99.90;;;;;;5015130;28;20032;-65
2024/03/02 08:30:06;;;;;;;8.30;4.32;;;8.20;99.90;;;;;;5024475;28;20109;-64
2024/03/02 08:32:52;;;;;;;6.78;4.03;;;8.00;99.90;;;;;;5021626;28;20033;-65
2024/03/02 08:35:38;;;;;;;8.73;4.97;;;7.90;99.90;;;;;;5022222;28;20064;-65
2024/03/02 08:38:24;;;;;;;8.95;4.93;;;7.60;99.90;;;;;;5016917;28;20037;-65
2024/03/02 08:41:12;;;;;;;7.22;4.22;;;7.50;99.90;;;;;;5028416;28;20038;-65
2024/03/02 08:43:59;;;;;;;8.95;5.03;;;7.40;99.90;;;;;;5022133;28;20116;-65
2024/03/02 08:46:45;;;;;;;10.18;6.05;;;7.40;99.90;;;;;;5008626;28;20037;-65
2024/03/02 08:49:31;;;;;;;9.68;5.18;;;7.50;99.90;;;;;;5016553;28;20463;-65
2024/03/02 08:52:17;;;;;;;9.55;5.43;;;7.50;99.90;;;;;;5024162;28;20036;-65
2024/03/02 08:55:03;;;;;;;9.45;5.57;;;7.50;99.90;;;;;;5026493;28;20030;-66
2024/03/02 08:57:50;;;;;;;10.03;5.43;;;7.50;99.90;;;;;;5019361;28;20433;-65
2024/03/02 09:00:36;;;;;;;10.65;5.85;;;7.50;99.90;;;;;;5011516;28;20041;-67
2024/03/02 09:03:22;;;;;;;12.18;5.53;;;7.50;99.90;;;;;;5019049;28;20104;-66
2024/03/02 09:06:08;;;;;;;10.02;5.78;;;7.50;99.90;;;;;;5027677;28;20124;-65
2024/03/02 09:08:54;;;;;;;10.93;6.07;;;7.60;99.90;;;;;;5030013;28;20025;-66
2024/03/02 09:11:39;;;;;;;10.23;5.93;;;7.80;99.90;;;;;;5033101;28;20041;-65
2024/03/02 09:14:25;;;;;;;14.50;6.32;;;7.80;99.90;;;;;;5021198;28;20059;-65
2024/03/02 09:17:11;;;;;;;9.02;5.30;;;7.90;99.90;;;;;;5030035;28;20557;-66
2024/03/02 09:19:57;;;;;;;11.48;6.95;;;8.00;99.90;;;;;;5024606;28;20029;-65
2024/03/02 09:22:43;;;;;;;15.52;7.85;;;8.10;99.90;;;;;;5020905;28;20033;-65
2024/03/02 09:25:29;;;;;;;11.23;6.30;;;8.10;99.90;;;;;;5028079;28;20028;-65
2024/03/02 09:28:18;;;;;;;10.23;6.68;;;8.10;99.90;;;;;;5027074;28;20164;-65
2024/03/02 09:31:04;;;;;;;15.82;8.07;;;8.20;99.90;;;;;;5025783;28;20044;-65
2024/03/02 09:33:50;;;;;;;14.55;6.80;;;8.20;99.90;;;;;;5021521;28;20490;-65
2024/03/02 09:36:35;;;;;;;15.05;6.13;;;8.30;99.90;;;;;;5025563;28;20485;-66
2024/03/02 09:39:22;;;;;;;10.40;6.00;;;8.30;99.90;;;;;;5018927;28;20075;-65
2024/03/02 09:42:08;;;;;;;16.30;7.55;;;8.30;99.90;;;;;;5025500;28;20040;-65
2024/03/02 09:44:53;;;;;;;11.73;7.22;;;8.40;99.90;;;;;;5020411;28;20104;-64
2024/03/02 09:47:39;;;;;;;14.60;7.07;;;8.50;99.90;;;;;;5025050;28;20047;-64
2024/03/02 09:50:25;;;;;;;12.20;6.78;;;8.60;99.90;;;;;;5021620;28;20502;-65
2024/03/02 09:53:12;;;;;;;17.97;8.40;;;8.70;99.90;;;;;;5023737;28;20030;-65
2024/03/02 09:55:59;;;;;;;12.77;6.85;;;8.80;99.90;;;;;;5027056;28;20040;-64
2024/03/02 09:58:45;;;;;;;12.43;7.00;;;8.90;99.90;;;;;;5016083;28;20045;-64
2024/03/02 10:01:31;;;;;;;10.23;6.07;;;9.00;99.90;;;;;;5025283;28;20077;-65
2024/03/02 10:04:17;;;;;;;11.55;6.10;;;9.10;99.90;;;;;;5030726;28;20075;-64
2024/03/02 10:07:14;;;;;;;11.27;6.22;;;9.20;99.90;;;;;;5028610;28;20502;-65
2024/03/02 10:10:15;;;;;;;17.48;6.50;;;9.30;99.90;;;;;;5025630;28;20044;-64
2024/03/02 10:13:05;;;;;;;12.93;7.60;;;9.50;99.90;;;;;;5022601;28;20057;-65
2024/03/02 10:15:51;;;;;;;14.52;7.57;;;9.60;99.90;;;;;;5023492;28;20441;-65
2024/03/02 10:18:37;;;;;;;14.57;7.65;;;9.80;99.90;;;;;;5027744;28;20064;-65
2024/03/02 10:21:25;;;;;;;13.75;7.18;;;9.70;99.90;;;;;;5033758;28;20213;-65
2024/03/02 10:24:12;;;;;;;12.05;7.50;;;9.60;99.90;;;;;;5022255;28;20081;-64
2024/03/02 10:26:58;;;;;;;14.30;7.82;;;9.70;99.90;;;;;;5031621;28;20033;-65
2024/03/02 10:29:47;;;;;;;21.27;6.80;;;9.80;99.90;;;;;;5028936;28;20029;-64
2024/03/02 10:32:33;;;;;;;9.13;6.00;;;10.10;99.90;;;;;;5023458;28;20515;-65
2024/03/02 10:35:20;;;;;;;13.33;6.17;;;10.20;99.90;;;;;;5032261;28;20187;-64
2024/03/02 10:38:06;;;;;;;9.40;4.85;;;10.20;99.90;;;;;;5026911;28;20092;-64
2024/03/02 10:40:52;;;;;;;10.73;5.57;;;10.30;99.90;;;;;;5023262;28;20637;-64
2024/03/02 10:43:38;;;;;;;9.75;5.18;;;10.40;99.90;;;;;;5025177;28;20349;-64
2024/03/02 10:46:31;;;;;;;10.63;4.80;;;10.50;99.90;;;;;;5032158;28;20072;-64
2024/03/02 10:49:17;;;;;;;8.57;4.47;;;10.60;99.90;;;;;;5023954;28;20063;-65
2024/03/02 10:52:03;;;;;;;8.57;4.53;;;10.50;99.90;;;;;;5026407;28;20033;-65
2024/03/02 10:54:49;;;;;;;7.28;4.03;;;10.60;99.90;;;;;;5015122;28;20387;-65
2024/03/02 10:57:53;;;;;;;6.25;4.10;;;10.60;99.90;;;;;;5028231;28;20033;-65
2024/03/02 11:00:41;;;;;;;7.68;4.25;;;10.60;99.90;;;;;;5029797;28;20047;-64
2024/03/02 11:03:28;;;;;;;5.55;4.07;;;10.70;99.90;;;;;;5029096;28;20040;-66
2024/03/02 11:06:14;;;;;;;;;;;10.70;99.90;;;;;;5031677;28;20113;-65
2024/03/02 11:09:05;;;;;;;7.68;4.53;;;10.80;99.90;;;;;;5030268;28;19908;-65
2024/03/02 11:12:38;;;;;;;9.65;5.00;;;10.90;99.90;;;;;;5029141;28;20386;-65
2024/03/02 11:15:26;;;;;;;14.52;5.85;;;10.70;99.90;;;;;;5034232;28;20447;-64
2024/03/02 11:18:13;;;;;;;8.57;5.70;;;10.80;99.90;;;;;;5020667;28;20103;-64
2024/03/02 11:20:59;;;;;;;9.93;6.22;;;10.50;99.90;;;;;;5036057;28;20249;-64
2024/03/02 11:23:45;;;;;;;14.10;6.57;;;10.90;99.90;;;;;;5022104;28;20040;-65
2024/03/02 11:26:39;;;;;;;13.90;6.22;;;10.90;99.90;;;;;;5029290;28;20103;-64
2024/03/02 11:29:54;;;;;;;9.32;5.43;;;11.10;99.90;;;;;;5026319;28;20562;-65
2024/03/02 11:32:40;;;;;;;8.63;5.05;;;11.30;99.90;;;;;;5035454;28;20071;-66
2024/03/02 11:35:28;;;;;;;10.32;5.95;;;11.30;99.90;;;;;;5048534;28;20115;-66
2024/03/02 11:38:14;;;;;;;9.38;6.03;;;11.20;99.90;;;;;;5044712;28;20028;-66
2024/03/02 11:41:07;;;;;;;12.30;6.00;;;11.00;99.90;;;;;;5050682;28;20096;-66
2024/03/02 11:43:53;;;;;;;7.75;5.38;;;10.90;99.90;;;;;;5047375;28;20048;-67
2024/03/02 11:46:41;;;;;;;13.70;5.88;;;10.90;99.90;;;;;;5053458;28;20115;-66
2024/03/02 11:49:42;;;;;;;11.68;6.32;;;11.10;99.90;;;;;;5052515;28;20032;-66
2024/03/02 11:52:28;;;;;;;8.40;5.75;;;11.30;99.90;;;;;;5060438;28;20040;-66
2024/03/02 11:55:18;;;;;;;12.35;5.75;;;11.00;99.90;;;;;;5046372;28;20082;-66
2024/03/02 11:58:04;;;;;;;9.90;5.90;;;11.10;99.90;;;;;;5046270;28;20029;-66
2024/03/02 12:00:57;;;;;;;9.82;6.10;;;10.90;99.90;;;;;;5046944;28;20543;-66
2024/03/02 12:03:44;;;;;;;8.90;5.78;;;10.80;99.90;;;;;;5040288;28;20040;-66
2024/03/02 12:06:29;;;;;;;8.88;5.28;;;10.70;99.90;;;;;;5052758;28;20028;-67
2024/03/02 12:09:15;;;;;;;13.40;5.78;;;10.50;99.90;;;;;;5046742;28;20033;-67
2024/03/02 12:12:09;;;;;;;8.13;5.28;;;10.50;99.90;;;;;;5036873;28;20028;-67
2024/03/02 12:14:55;;;;;;;7.97;4.63;;;10.60;99.90;;;;;;5053198;28;20039;-66
2024/03/02 12:17:41;;;;;;;10.73;4.88;;;10.70;99.90;;;;;;5048069;28;20040;-66
2024/03/02 12:20:29;;;;;;;8.93;4.53;;;10.90;99.90;;;;;;5045494;28;20502;-66
2024/03/02 12:23:15;;;;;;;6.32;4.13;;;11.10;99.90;;;;;;5048763;28;20037;-66
2024/03/02 12:26:01;;;;;;;6.97;4.50;;;11.10;99.90;;;;;;5047470;28;20051;-66
2024/03/02 12:28:47;;;;;;;7.75;4.60;;;11.20;99.90;;;;;;5041313;28;20037;-66
2024/03/02 12:31:35;;;;;;;7.18;3.78;;;11.30;99.90;;;;;;5044622;28;20102;-66
2024/03/02 12:34:22;;;;;;;6.13;3.88;;;11.20;99.90;;;;;;5047832;28;20044;-67
2024/03/02 12:37:12;;;;;;;8.32;4.43;;;11.20;99.90;;;;;;5046813;28;20033;-67
2024/03/02 12:39:58;;;;;;;6.93;4.10;;;11.20;99.90;;;;;;5031720;28;20039;-67
2024/03/02 12:42:45;;;;;;;6.25;3.90;;;11.30;99.90;;;;;;5046110;28;20033;-67
2024/03/02 12:45:31;;;;;;;;;;;11.20;99.90;;;;;;5046183;28;20037;-66
2024/03/02 12:48:17;;;;;;;7.70;4.40;;;11.20;99.90;;;;;;5039921;28;19920;-67
2024/03/02 12:51:03;;;;;;;9.57;4.60;;;11.10;99.90;;;;;;5050470;28;20021;-67
2024/03/02 12:53:57;;;;;;;7.68;4.40;;;11.00;99.90;;;;;;5043218;28;20099;-67
2024/03/02 12:56:45;;;;;;;11.15;4.30;;;10.90;99.90;;;;;;5059535;28;20645;-67
2024/03/02 12:59:31;;;;;;;5.78;4.03;;;10.90;99.90;;;;;;5045294;28;20040;-67
2024/03/02 13:02:18;;;;;;;8.98;4.35;;;10.90;99.90;;;;;;5049793;28;20038;-67
2024/03/02 13:05:06;;;;;;;6.05;4.03;;;10.90;99.90;;;;;;5025686;28;20059;-67
2024/03/02 13:07:53;;;;;;;5.13;3.88;;;11.00;99.90;;;;;;5041399;28;20040;-67
2024/03/02 13:10:41;;;;;;;8.02;3.53;;;10.80;99.90;;;;;;5052952;28;20111;-67
2024/03/02 13:13:30;;;;;;;8.48;3.95;;;10.90;99.90;;;;;;5050566;28;20033;-67
2024/03/02 13:16:16;;;;;;;8.00;4.05;;;10.90;99.90;;;;;;5054747;28;20163;-67
2024/03/02 13:19:03;;;;;;;5.80;3.97;;;10.90;99.90;;;;;;5041435;28;20051;-67
2024/03/02 13:21:50;;;;;;;6.78;3.70;;;10.80;99.90;;;;;;5050621;28;20047;-67
2024/03/02 13:24:36;;;;;;;5.10;3.20;;;10.70;99.90;;;;;;5047023;28;20040;-67
2024/03/02 13:27:22;;;;;;;6.65;3.75;;;10.70;99.90;;;;;;5057845;28;20403;-66
2024/03/02 13:30:08;;;;;;;12.88;3.67;;;10.60;99.90;;;;;;5054581;28;20029;-67
2024/03/02 13:32:54;;;;;;;6.00;3.83;;;10.60;99.90;;;;;;5044023;28;20041;-67
2024/03/02 13:35:40;;;;;;;6.88;3.65;;;10.50;99.90;;;;;;5054456;28;20391;-67
2024/03/02 13:38:26;;;;;;;8.73;3.90;;;10.50;99.90;;;;;;5047353;28;20087;-67
2024/03/02 13:41:12;;;;;;;5.40;3.40;;;10.50;99.90;;;;;;5050907;28;20033;-67
2024/03/02 13:44:01;;;;;;;10.02;4.50;;;10.50;99.90;;;;;;5046458;28;20047;-67
2024/03/02 13:46:47;;;;;;;7.82;3.63;;;10.50;99.90;;;;;;5046777;28;20036;-67
2024/03/02 13:49:36;;;;;;;5.93;3.97;;;10.50;99.90;;;;;;5043751;28;20029;-67
2024/03/02 13:52:21;;;;;;;6.63;3.22;;;10.40;99.90;;;;;;5048792;28;20388;-67
2024/03/02 13:55:07;;;;;;;9.50;3.05;;;10.40;99.90;;;;;;5053717;28;20394;-67
2024/03/02 13:57:53;;;;;;;6.05;3.30;;;10.30;99.90;;;;;;5044784;28;20029;-67
2024/03/02 14:00:39;;;;;;;6.57;2.97;;;10.30;99.90;;;;;;5045878;28;20602;-67
2024/03/02 14:03:27;;;;;;;6.90;2.65;;;10.30;99.90;;;;;;5036689;28;20090;-67
2024/03/02 14:06:13;;;;;;;6.35;3.03;;;10.30;99.90;;;;;;5050104;28;20059;-67
2024/03/02 14:08:59;;;;;;;5.10;2.90;;;10.40;99.90;;;;;;5046978;28;20031;-67
2024/03/02 14:11:45;;;;;;;3.80;2.78;;;10.40;99.90;;;;;;5059440;28;20036;-67
2024/03/02 14:14:31;;;;;;;7.53;3.07;;;10.40;99.90;;;;;;5043579;28;20039;-67
2024/03/02 14:17:17;;;;;;;5.63;2.93;;;10.40;99.90;;;;;;5056157;28;20091;-67
2024/03/02 14:20:04;;;;;;;4.35;2.40;;;10.40;99.90;;;;;;5045536;28;20040;-67
2024/03/02 14:22:50;;;;;;;;;;;10.30;99.90;;;;;;5040210;28;20037;-67
2024/03/02 14:25:36;;;;;;;3.58;2.35;;;10.30;99.90;;;;;;5057198;28;20377;-69
2024/03/02 14:28:22;;;;;;;5.93;2.28;;;10.30;99.90;;;;;;5050593;28;20070;-67
2024/03/02 14:31:08;;;;;;;4.03;2.43;;;10.30;99.90;;;;;;5052634;28;20045;-67